Главная страница
METAR-TAF:

METAR-TAF

Аэропорты :

Киль, Германия

широта: 54-23N, долгота: 010-10E, высота над уровнем моря: 31 м

Текущие метеонаблюдения

Эта сводка был подготовлена 16 минут назад, в 14:50 UTC
Ветер 11 Узел от восточный
Температура 8°C
Влажность 87%
Давление 1006 hPa
Видимость 10 км и более
Сплошная облачность на высоте 1100 фута

METAR: EDHK 151450Z 10011KT 9999 OVC011 08/06 Q1006

Время: 16:06 (15:06 UTC)

Прогноз

Эта сводка был подготовлена 1 час и 6 минут назад, в 14:00 UTC
Прогноз действительный с 15-го 15 UTC до 15-го 18 UTC
Ветер 12 Узел от восточный с порывами до 25 Узел
Видимость 10 км и более
Рассеянная облачность на высоте 900 фута
изменения
С 15-го 17 UTC до 15-го 18 UTC
Ветер 9 Узел от восточный

TAF: EDHK 151400Z 1515/1518 08012G25KT 9999 BKN009 BECMG 1517/1518 08009KT

Метеонаблюдения и прогнозы для более 4000 аэропортов (сводки METAR и TAF).

Имеющиеся станции представлены на карте желтыми и красными точками.

Чтобы увидеть название станции, наведите на нее мышь.

Затем щелкните, чтобы увидеть метеонаблюдения и метеопрогнозы.

Управление картой: чтобы увеличить масштаб, щелкните зеленые кнопки с черным крестиком; чтобы уменьшить масштаб, щелкните зеленую кнопку с тире; для просмотра соседних карт щелкайте зеленые стрелки.


METAR-TAF: